Saint Pete Beach, FL

9:17 AM EST on December 27, 2014 (GMT -0500)
Pasadena on the Gulf-Mango Ave | Change Station
CLOSE
Current Station
Personal Weather Station
Location: St Petersburg, FL
Elevation: 13 ft
Nearby Weather Stations

Elev 13 ft 27.76 °N, 82.73 °W | Updated 1 second ago

Overcast
Overcast
67.7 °F
Feels Like 67.7 °F
N
0.0
Wind Variable Wind from NNE
Gusts 2.0 mph

Today
High -- | Low -- °F
--% Chance of Precip.
Yesterday
High -- | Low -- °F
Precip. -- in
7:20 AM 5:44 PM
Waxing Crescent, 37% visible
Pressure 30.24 in
Visibility 10.0 miles
Clouds Overcast 2300 ft
Dew Point 64 °F
Humidity 89%
Rainfall 0.00 in
Snow Depth Not available.
UV 0 out of 12
Pollen 6.20 out of 12
Air Quality Not available.
Flu Activity Not available.
METAR KSPG 271353Z 06005KT 10SM OVC023 19/17 A3024 RMK AO2 SLP240 T01940167

More Conditions Fewer Conditions

Pressure 30.24 in
Visibility 10.0 miles
Clouds Overcast 2300 ft
Dew Point 64 °F
Humidity 89%
Rainfall 0.00 in
Snow Depth Not available.
UV 0 out of 12
Pollen 6.20 out of 12
Air Quality Not available.
Flu Activity Not available.
METAR KSPG 271353Z 06005KT 10SM OVC023 19/17 A3024 RMK AO2 SLP240 T01940167

More Conditions Fewer Conditions

10-Day Weather Forecast

Almanac

Astronomy

Dec. 27, 2014 Rise Set
Actual Time
Civil Twilight
Nautical Twilight
Astronomical Twilight
Moon
Length of Visible Light
Length of Day
Tomorrow will be .
, % of the Moon is Illuminated

Today's Extremes

State Highs State Lows

Community

WunderPhotos

Upload Photos

1,780,909 photos uploaded!

WunderBlogs® & News

Nearby

Air Quality

  Air Quality AQ Index Pollutant
Not available.

Snow Depth

Station Depth Elevation

Earthquake Activity

City Distance Mag. Time & Date
Minimum magnitude displayed is 2.5.

Coastal Water Temperatures

Place Temperature

Nearby Weather Stations